createdAt,value
2023-05-20T00:00:35.034Z,2.22
2023-05-20T00:03:01.608Z,3.63
2023-05-20T00:05:28.151Z,2.28
2023-05-20T00:07:54.572Z,4.13
2023-05-20T00:10:21.034Z,4.43
2023-05-20T00:12:47.528Z,3.90
2023-05-20T00:15:14.006Z,3.17
2023-05-20T00:17:40.689Z,2.67
2023-05-20T00:20:08.380Z,2.45
2023-05-20T00:22:34.854Z,5.32
2023-05-20T00:25:01.329Z,4.28
2023-05-20T00:27:27.753Z,3.80
2023-05-20T00:29:54.244Z,4.15
2023-05-20T00:32:21.000Z,3.70
2023-05-20T00:34:57.205Z,2.53
2023-05-20T00:37:24.307Z,4.53
2023-05-20T00:39:51.131Z,5.20
2023-05-20T00:42:24.998Z,3.35
2023-05-20T00:44:51.779Z,3.53
2023-05-20T00:47:20.183Z,3.20
2023-05-20T00:49:50.257Z,3.70
2023-05-20T00:52:19.566Z,5.05
2023-05-20T00:54:46.273Z,2.58
2023-05-20T00:57:13.736Z,3.22
2023-05-20T00:59:41.780Z,4.03
2023-05-20T01:02:09.447Z,3.92
2023-05-20T01:04:36.407Z,3.55
2023-05-20T01:07:05.604Z,3.38
2023-05-20T01:09:33.125Z,3.63
2023-05-20T01:12:13.228Z,3.88
2023-05-20T01:14:56.578Z,2.35
2023-05-20T01:17:27.155Z,3.10
2023-05-20T01:19:56.128Z,4.40
2023-05-20T01:22:27.316Z,4.20
2023-05-20T01:24:53.811Z,3.70
2023-05-20T01:27:22.484Z,4.18
2023-05-20T01:29:51.052Z,5.13
2023-05-20T01:32:24.771Z,4.65
2023-05-20T01:34:52.864Z,2.60
2023-05-20T01:37:20.030Z,3.38
2023-05-20T01:39:49.061Z,3.10
2023-05-20T01:42:17.117Z,4.40
2023-05-20T01:44:43.859Z,4.07
2023-05-20T01:47:10.691Z,6.22
2023-05-20T01:49:37.214Z,4.03
2023-05-20T01:52:04.463Z,1.85
2023-05-20T01:54:31.046Z,1.95
2023-05-20T01:56:57.586Z,3.78
2023-05-20T01:59:24.180Z,4.40
2023-05-20T02:01:51.036Z,3.30
2023-05-20T02:04:19.180Z,2.40
2023-05-20T02:06:46.142Z,3.67
2023-05-20T02:09:12.941Z,2.55
2023-05-20T02:11:39.406Z,4.05
2023-05-20T02:14:06.335Z,2.63
2023-05-20T02:16:32.944Z,2.58
2023-05-20T02:18:59.599Z,2.00
2023-05-20T02:21:26.234Z,2.53
2023-05-20T02:23:53.626Z,3.47
2023-05-20T02:26:20.683Z,3.47
2023-05-20T02:28:51.026Z,4.45
2023-05-20T02:31:18.087Z,3.30
2023-05-20T02:33:45.816Z,2.08
2023-05-20T02:36:12.499Z,2.45
2023-05-20T02:38:39.044Z,3.88
2023-05-20T02:41:05.609Z,3.15
2023-05-20T02:43:33.538Z,5.05
2023-05-20T02:46:01.377Z,3.08
2023-05-20T02:48:27.956Z,4.07
2023-05-20T02:50:54.548Z,3.92
2023-05-20T02:53:21.053Z,3.17
2023-05-20T02:55:48.652Z,3.22
2023-05-20T02:58:15.182Z,4.50
2023-05-20T03:00:41.701Z,2.97
2023-05-20T03:03:10.009Z,2.20
2023-05-20T03:05:37.989Z,3.45
2023-05-20T03:08:09.584Z,3.45
2023-05-20T03:10:39.537Z,3.92
2023-05-20T03:13:11.533Z,4.18
2023-05-20T03:15:38.991Z,3.42
2023-05-20T03:18:07.268Z,3.83
2023-05-20T03:20:36.880Z,4.28
2023-05-20T03:23:04.358Z,4.63
2023-05-20T03:25:31.095Z,5.38
2023-05-20T03:28:00.737Z,3.55
2023-05-20T03:30:28.213Z,4.53
2023-05-20T03:32:59.337Z,2.65
2023-05-20T03:35:26.425Z,2.63
2023-05-20T03:37:53.317Z,3.00
2023-05-20T03:40:22.480Z,4.05
2023-05-20T03:42:50.876Z,4.10
2023-05-20T03:45:19.024Z,2.83
2023-05-20T03:47:59.982Z,3.15
2023-05-20T03:50:26.552Z,3.55
2023-05-20T03:52:53.036Z,3.13
2023-05-20T03:55:22.339Z,3.03
2023-05-20T03:57:48.874Z,2.53
2023-05-20T04:00:16.784Z,5.35
2023-05-20T04:02:43.375Z,4.38
2023-05-20T04:05:12.777Z,3.53
2023-05-20T04:07:39.943Z,4.68
2023-05-20T04:10:08.417Z,2.63
2023-05-20T04:12:36.478Z,2.05
2023-05-20T04:15:03.335Z,2.00
2023-05-20T04:17:38.470Z,5.13
2023-05-20T04:20:07.241Z,5.43
2023-05-20T04:22:35.850Z,3.97
2023-05-20T04:25:04.732Z,3.50
2023-05-20T04:27:33.612Z,1.92
2023-05-20T04:30:02.376Z,3.33
2023-05-20T04:32:34.314Z,4.22
2023-05-20T04:35:02.415Z,3.50
2023-05-20T04:37:33.149Z,3.28
2023-05-20T04:39:59.667Z,5.03
2023-05-20T04:42:27.881Z,4.47
2023-05-20T04:44:54.662Z,4.55
2023-05-20T04:47:21.270Z,2.83
2023-05-20T04:49:47.863Z,5.00
2023-05-20T04:52:14.328Z,3.90
2023-05-20T04:54:41.472Z,3.47
2023-05-20T04:57:09.138Z,2.30
2023-05-20T04:59:35.620Z,3.97
2023-05-20T05:02:02.654Z,3.47
2023-05-20T05:04:29.456Z,4.38
2023-05-20T05:06:56.755Z,3.22
2023-05-20T05:09:23.374Z,5.00
2023-05-20T05:11:50.049Z,5.45
2023-05-20T05:14:17.014Z,2.88
2023-05-20T05:16:43.689Z,2.55
2023-05-20T05:19:10.307Z,4.78
2023-05-20T05:21:39.078Z,3.75
2023-05-20T05:24:05.781Z,6.03
2023-05-20T05:26:32.416Z,5.65
2023-05-20T05:28:58.903Z,3.20
2023-05-20T05:31:25.772Z,4.43
2023-05-20T05:33:52.342Z,4.13
2023-05-20T05:36:18.860Z,3.63
2023-05-20T05:38:45.465Z,2.78
2023-05-20T05:41:11.983Z,3.55
2023-05-20T05:43:38.467Z,4.57
2023-05-20T05:46:06.586Z,3.80
2023-05-20T05:48:33.161Z,3.78
2023-05-20T05:50:59.729Z,3.28
2023-05-20T05:53:26.916Z,4.75
2023-05-20T05:55:53.675Z,5.20
2023-05-20T05:58:20.205Z,4.68
2023-05-20T06:00:46.797Z,4.15
2023-05-20T06:03:14.290Z,4.60
2023-05-20T06:05:40.857Z,5.50
2023-05-20T06:08:07.611Z,3.90
2023-05-20T06:10:35.820Z,5.75
2023-05-20T06:13:02.381Z,6.80
2023-05-20T06:15:28.971Z,5.68
2023-05-20T06:17:56.193Z,4.65
2023-05-20T06:20:23.177Z,5.15
2023-05-20T06:22:50.084Z,6.10
2023-05-20T06:25:16.942Z,4.18
2023-05-20T06:27:43.614Z,5.38
2023-05-20T06:30:13.357Z,6.32
2023-05-20T06:32:39.883Z,4.80
2023-05-20T06:35:06.717Z,5.93
2023-05-20T06:37:33.524Z,4.60
2023-05-20T06:40:00.656Z,3.80
2023-05-20T06:42:28.211Z,4.70
2023-05-20T06:45:05.144Z,7.80
2023-05-20T06:47:36.162Z,8.13
2023-05-20T06:50:03.031Z,5.60
2023-05-20T06:52:30.694Z,7.05
2023-05-20T06:54:57.282Z,8.52
2023-05-20T06:57:24.287Z,7.10
2023-05-20T06:59:51.532Z,9.88
2023-05-20T07:02:22.172Z,6.43
2023-05-20T07:04:49.252Z,5.15
2023-05-20T07:07:17.342Z,5.60
2023-05-20T07:09:45.184Z,5.95
2023-05-20T07:12:11.715Z,4.60
2023-05-20T07:14:38.454Z,4.53
2023-05-20T07:17:05.881Z,7.68
2023-05-20T07:19:33.734Z,4.95
2023-05-20T07:22:00.820Z,5.43
2023-05-20T07:24:36.738Z,4.82
2023-05-20T07:27:04.615Z,4.80
2023-05-20T07:29:31.311Z,5.20
2023-05-20T07:31:58.229Z,3.88
2023-05-20T07:34:24.914Z,4.57
2023-05-20T07:36:51.633Z,6.25
2023-05-20T07:39:18.141Z,4.03
2023-05-20T07:41:44.861Z,6.03
2023-05-20T07:44:13.171Z,4.28
2023-05-20T07:46:43.550Z,4.30
2023-05-20T07:49:11.430Z,9.02
2023-05-20T07:51:39.227Z,3.80
2023-05-20T07:54:06.523Z,5.00
2023-05-20T07:56:33.343Z,5.63
2023-05-20T07:59:01.158Z,6.65
2023-05-20T08:01:31.768Z,6.22
2023-05-20T08:03:58.611Z,3.75
2023-05-20T08:06:27.313Z,5.22
2023-05-20T08:08:55.945Z,3.60
2023-05-20T08:11:28.401Z,5.00
2023-05-20T08:13:55.285Z,6.35
2023-05-20T08:16:24.097Z,5.13
2023-05-20T08:18:51.148Z,5.22
2023-05-20T08:21:20.486Z,5.72
2023-05-20T08:23:47.063Z,7.00
2023-05-20T08:26:13.671Z,5.13
2023-05-20T08:28:42.122Z,4.30
2023-05-20T08:31:08.756Z,4.70
2023-05-20T08:33:35.491Z,5.30
2023-05-20T08:36:02.198Z,5.28
2023-05-20T08:38:29.257Z,6.55
2023-05-20T08:40:57.794Z,4.78
2023-05-20T08:43:25.720Z,4.90
2023-05-20T08:45:52.817Z,6.57
2023-05-20T08:48:23.052Z,5.00
2023-05-20T08:50:53.488Z,4.28
2023-05-20T08:53:22.615Z,4.90
2023-05-20T08:55:54.063Z,7.55
2023-05-20T08:58:21.717Z,7.70
2023-05-20T09:00:48.185Z,5.43
2023-05-20T09:03:14.798Z,4.80
2023-05-20T09:05:41.443Z,4.38
2023-05-20T09:08:09.670Z,5.22
2023-05-20T09:10:37.112Z,4.60
2023-05-20T09:13:05.093Z,3.67
2023-05-20T09:15:33.211Z,6.82
2023-05-20T09:18:02.125Z,5.60
2023-05-20T09:20:29.866Z,3.28
2023-05-20T09:23:00.600Z,5.43
2023-05-20T09:25:27.634Z,5.13
2023-05-20T09:27:54.776Z,6.95
2023-05-20T09:30:22.415Z,5.55
2023-05-20T09:33:00.758Z,3.97
2023-05-20T09:35:28.023Z,6.93
2023-05-20T09:37:56.520Z,5.22
2023-05-20T09:40:27.964Z,4.05
2023-05-20T09:43:03.519Z,6.35
2023-05-20T09:45:30.477Z,5.22
2023-05-20T09:47:58.061Z,7.88
2023-05-20T09:50:25.675Z,6.03
2023-05-20T09:52:53.329Z,4.75
2023-05-20T09:55:22.475Z,5.75
2023-05-20T09:57:48.956Z,4.13
2023-05-20T10:00:19.856Z,6.05
2023-05-20T10:02:53.145Z,4.63
2023-05-20T10:05:31.944Z,5.43
2023-05-20T10:08:18.862Z,4.72
2023-05-20T10:11:03.505Z,4.03
2023-05-20T10:13:56.945Z,4.03
2023-05-20T10:16:48.004Z,6.10
2023-05-20T10:19:33.440Z,4.97
2023-05-20T10:22:11.601Z,4.95
2023-05-20T10:24:43.946Z,4.95
2023-05-20T10:27:15.478Z,3.63
2023-05-20T10:32:29.863Z,6.13
2023-05-20T10:35:05.360Z,3.17
2023-05-20T10:37:40.832Z,3.00
2023-05-20T10:40:08.569Z,3.40
2023-05-20T10:42:35.116Z,4.45
2023-05-20T10:45:01.684Z,8.20
2023-05-20T10:47:28.257Z,5.70
2023-05-20T10:49:54.769Z,5.90
2023-05-20T10:52:21.513Z,5.85
2023-05-20T10:54:54.453Z,4.97
2023-05-20T10:57:21.878Z,3.67
2023-05-20T10:59:49.317Z,5.03
2023-05-20T11:02:16.998Z,3.53
2023-05-20T11:04:44.540Z,6.25
2023-05-20T11:07:11.258Z,3.42
2023-05-20T11:09:37.868Z,5.38
2023-05-20T11:12:04.653Z,4.85
2023-05-20T11:14:31.418Z,5.45
2023-05-20T11:16:59.699Z,6.47
2023-05-20T11:19:27.567Z,4.93
2023-05-20T11:21:54.620Z,3.47
2023-05-20T11:24:26.870Z,4.28
2023-05-20T11:26:57.469Z,6.13
2023-05-20T11:29:26.675Z,4.60
2023-05-20T11:31:53.381Z,6.05
2023-05-20T11:34:26.131Z,4.57
2023-05-20T11:36:57.850Z,4.35
2023-05-20T11:39:25.212Z,6.60
2023-05-20T11:41:51.849Z,5.43
2023-05-20T11:44:20.109Z,5.57
2023-05-20T11:46:48.233Z,5.93
2023-05-20T11:49:15.806Z,6.70
2023-05-20T11:51:43.602Z,6.95
2023-05-20T11:54:10.625Z,5.95
2023-05-20T11:56:38.225Z,4.97
2023-05-20T11:59:06.504Z,4.57
2023-05-20T12:01:37.634Z,4.68
2023-05-20T12:04:05.593Z,5.45
2023-05-20T12:06:32.450Z,9.05
2023-05-20T12:09:07.014Z,6.97
2023-05-20T12:11:35.536Z,8.38
2023-05-20T12:14:02.998Z,4.88
2023-05-20T12:16:32.119Z,5.32
2023-05-20T12:18:58.721Z,4.85
2023-05-20T12:21:25.358Z,5.70
2023-05-20T12:23:57.396Z,8.82
2023-05-20T12:26:25.755Z,6.25
2023-05-20T12:28:52.488Z,7.63
2023-05-20T12:31:19.181Z,6.45
2023-05-20T12:33:45.929Z,5.15
2023-05-20T12:36:13.117Z,5.38
2023-05-20T12:38:39.857Z,6.22
2023-05-20T12:41:06.448Z,7.25
2023-05-20T12:43:34.961Z,5.35
2023-05-20T12:46:03.642Z,7.10
2023-05-20T12:48:30.191Z,7.00
2023-05-20T12:50:56.655Z,6.50
2023-05-20T12:53:23.387Z,6.13
2023-05-20T12:55:49.959Z,6.57
2023-05-20T12:58:16.601Z,6.93
2023-05-20T13:00:43.139Z,6.15
2023-05-20T13:03:09.778Z,6.25
2023-05-20T13:05:36.377Z,8.18
2023-05-20T13:08:03.048Z,5.82
2023-05-20T13:10:29.588Z,9.10
2023-05-20T13:12:56.552Z,11.23
2023-05-20T13:15:23.045Z,6.60
2023-05-20T13:17:49.737Z,5.20
2023-05-20T13:20:19.684Z,6.13
2023-05-20T13:22:46.400Z,7.68
2023-05-20T13:25:12.903Z,7.88
2023-05-20T13:27:39.479Z,6.63
2023-05-20T13:30:06.855Z,6.22
2023-05-20T13:32:33.499Z,5.63
2023-05-20T13:35:00.115Z,6.97
2023-05-20T13:37:26.648Z,7.57
2023-05-20T13:39:53.128Z,7.82
2023-05-20T13:42:19.630Z,7.03
2023-05-20T13:44:46.504Z,6.88
2023-05-20T13:47:13.016Z,5.80
2023-05-20T13:49:39.752Z,6.53
2023-05-20T13:52:06.427Z,6.60
2023-05-20T13:54:32.916Z,6.88
2023-05-20T13:56:59.447Z,7.53
2023-05-20T13:59:25.984Z,6.38
2023-05-20T14:01:53.675Z,7.75
2023-05-20T14:04:20.191Z,6.88
2023-05-20T14:06:46.778Z,4.97
2023-05-20T14:09:13.272Z,5.22
2023-05-20T14:11:39.811Z,5.32
2023-05-20T14:14:06.352Z,6.22
2023-05-20T14:16:33.216Z,5.88
2023-05-20T14:19:01.307Z,5.00
2023-05-20T14:21:28.304Z,5.53
2023-05-20T14:23:54.761Z,6.55
2023-05-20T14:26:21.710Z,5.57
2023-05-20T14:28:48.236Z,8.48
2023-05-20T14:31:14.827Z,4.53
2023-05-20T14:33:41.313Z,5.93
2023-05-20T14:36:07.852Z,5.65
2023-05-20T14:38:34.302Z,5.63
2023-05-20T14:41:00.769Z,6.43
2023-05-20T14:43:27.339Z,7.53
2023-05-20T14:45:53.943Z,7.07
2023-05-20T14:48:20.430Z,4.78
2023-05-20T14:50:49.517Z,5.30
2023-05-20T14:53:17.241Z,5.85
2023-05-20T14:55:43.768Z,4.40
2023-05-20T14:58:10.358Z,6.95
2023-05-20T15:00:36.998Z,4.80
2023-05-20T15:03:03.936Z,5.40
2023-05-20T15:05:30.866Z,6.00
2023-05-20T15:07:57.538Z,8.80
2023-05-20T15:10:24.046Z,6.07
2023-05-20T15:12:51.330Z,5.07
2023-05-20T15:15:18.114Z,6.00
2023-05-20T15:17:44.617Z,5.63
2023-05-20T15:20:11.510Z,5.15
2023-05-20T15:22:38.005Z,6.28
2023-05-20T15:25:04.955Z,6.00
2023-05-20T15:27:31.468Z,5.47
2023-05-20T15:29:57.935Z,6.80
2023-05-20T15:32:24.482Z,6.18
2023-05-20T15:34:51.152Z,5.85
2023-05-20T15:37:17.862Z,6.22
2023-05-20T15:39:44.682Z,4.35
2023-05-20T15:42:13.945Z,7.10
2023-05-20T15:44:40.957Z,6.30
2023-05-20T15:47:07.453Z,5.15
2023-05-20T15:49:34.026Z,6.30
2023-05-20T15:52:03.781Z,6.35
2023-05-20T15:54:31.148Z,4.90
2023-05-20T15:56:58.078Z,4.70
2023-05-20T15:59:24.755Z,6.78
2023-05-20T16:01:51.298Z,6.80
2023-05-20T16:04:17.987Z,6.75
2023-05-20T16:06:44.584Z,5.22
2023-05-20T16:09:11.250Z,5.45
2023-05-20T16:11:37.854Z,6.72
2023-05-20T16:14:04.394Z,7.07
2023-05-20T16:16:31.871Z,5.03
2023-05-20T16:18:59.916Z,6.65
2023-05-20T16:21:26.554Z,6.65
2023-05-20T16:23:53.173Z,6.53
2023-05-20T16:26:19.821Z,9.10
2023-05-20T16:28:47.048Z,5.90
2023-05-20T16:31:13.570Z,8.82
2023-05-20T16:33:40.054Z,6.80
2023-05-20T16:36:06.593Z,6.13
2023-05-20T16:38:34.400Z,6.75
2023-05-20T16:41:01.752Z,6.78
2023-05-20T16:43:28.204Z,5.72
2023-05-20T16:45:54.706Z,7.63
2023-05-20T16:48:21.399Z,7.03
2023-05-20T16:50:47.836Z,9.52
2023-05-20T16:53:16.335Z,6.20
2023-05-20T16:55:43.116Z,7.55
2023-05-20T16:58:09.631Z,8.30
2023-05-20T17:00:36.365Z,6.32
2023-05-20T17:03:03.093Z,8.82
2023-05-20T17:05:29.631Z,9.45
2023-05-20T17:07:59.786Z,6.95
2023-05-20T17:10:28.427Z,5.75
2023-05-20T17:12:54.964Z,7.13
2023-05-20T17:15:23.169Z,7.43
2023-05-20T17:17:49.712Z,8.25
2023-05-20T17:20:16.388Z,9.73
2023-05-20T17:22:42.976Z,6.15
2023-05-20T17:25:09.762Z,6.47
2023-05-20T17:27:36.290Z,6.57
2023-05-20T17:30:02.825Z,8.35
2023-05-20T17:32:29.447Z,7.07
2023-05-20T17:34:56.125Z,7.45
2023-05-20T17:37:22.676Z,9.65
2023-05-20T17:39:49.187Z,7.20
2023-05-20T17:42:15.704Z,8.13
2023-05-20T17:44:42.226Z,6.15
2023-05-20T17:47:08.846Z,6.65
2023-05-20T17:49:35.394Z,6.38
2023-05-20T17:52:02.058Z,7.55
2023-05-20T17:54:28.547Z,8.40
2023-05-20T17:56:55.283Z,7.57
2023-05-20T17:59:21.785Z,9.32
2023-05-20T18:01:48.463Z,9.65
2023-05-20T18:04:15.043Z,8.52
2023-05-20T18:06:41.653Z,10.10
2023-05-20T18:09:08.463Z,7.55
2023-05-20T18:11:35.502Z,9.93
2023-05-20T18:14:02.253Z,9.18
2023-05-20T18:16:30.143Z,12.00
2023-05-20T18:18:57.677Z,9.98
2023-05-20T18:21:24.886Z,10.65
2023-05-20T18:23:52.466Z,14.98
2023-05-20T18:26:19.015Z,9.95
2023-05-20T18:28:45.565Z,9.57
2023-05-20T18:31:12.005Z,9.75
2023-05-20T18:33:38.530Z,11.63
2023-05-20T18:36:06.018Z,10.25
2023-05-20T18:38:32.972Z,9.40
2023-05-20T18:40:59.774Z,7.88
2023-05-20T18:43:26.644Z,8.68
2023-05-20T18:45:53.228Z,9.57
2023-05-20T18:48:26.692Z,8.73
2023-05-20T18:53:21.352Z,9.63
2023-05-20T18:55:47.992Z,12.45
2023-05-20T18:58:14.834Z,11.15
2023-05-20T19:00:42.041Z,9.93
2023-05-20T19:03:08.665Z,11.80
2023-05-20T19:05:35.605Z,11.73
2023-05-20T19:08:03.038Z,13.15
2023-05-20T19:10:29.896Z,15.70
2023-05-20T19:12:56.612Z,14.85
2023-05-20T19:15:23.182Z,13.55
2023-05-20T19:17:49.816Z,12.45
2023-05-20T19:20:16.413Z,11.20
2023-05-20T19:22:42.953Z,10.32
2023-05-20T19:25:09.758Z,9.90
2023-05-20T19:27:36.362Z,11.00
2023-05-20T19:30:03.187Z,9.05
2023-05-20T19:32:29.732Z,9.35
2023-05-20T19:34:56.221Z,10.77
2023-05-20T19:37:23.307Z,8.73
2023-05-20T19:39:50.107Z,8.77
2023-05-20T19:42:16.690Z,7.35
2023-05-20T19:44:46.350Z,7.22
2023-05-20T19:47:12.871Z,7.65
2023-05-20T19:49:39.332Z,7.20
2023-05-20T19:52:06.871Z,7.07
2023-05-20T19:54:33.770Z,6.70
2023-05-20T19:57:00.248Z,8.77
2023-05-20T19:59:26.892Z,10.00
2023-05-20T20:01:53.421Z,6.88
2023-05-20T20:04:20.054Z,8.25
2023-05-20T20:06:47.983Z,8.50
2023-05-20T20:09:14.600Z,6.63
2023-05-20T20:11:41.071Z,9.45
2023-05-20T20:14:07.505Z,7.57
2023-05-20T20:16:34.691Z,8.32
2023-05-20T20:19:01.351Z,8.05
2023-05-20T20:21:27.948Z,8.35
2023-05-20T20:23:54.442Z,7.72
2023-05-20T20:26:25.649Z,11.75
2023-05-20T20:28:52.289Z,10.27
2023-05-20T20:31:18.740Z,10.63
2023-05-20T20:33:45.231Z,8.60
2023-05-20T20:36:11.710Z,10.48
2023-05-20T20:38:38.582Z,8.35
2023-05-20T20:41:05.110Z,11.05
2023-05-20T20:43:34.587Z,11.40
2023-05-20T20:46:01.169Z,10.30
2023-05-20T20:48:27.708Z,10.15
2023-05-20T20:50:54.511Z,8.73
2023-05-20T20:53:21.774Z,12.38
2023-05-20T20:55:48.354Z,11.60
2023-05-20T20:58:15.456Z,11.32
2023-05-20T21:00:44.851Z,10.38
2023-05-20T21:03:12.635Z,9.93
2023-05-20T21:05:39.428Z,10.40
2023-05-20T21:08:08.299Z,8.85
2023-05-20T21:10:36.974Z,10.55
2023-05-20T21:13:03.868Z,9.80
2023-05-20T21:15:30.349Z,11.35
2023-05-20T21:17:56.902Z,8.10
2023-05-20T21:20:23.745Z,9.45
2023-05-20T21:22:50.238Z,9.32
2023-05-20T21:25:16.831Z,9.40
2023-05-20T21:27:43.274Z,8.85
2023-05-20T21:30:11.159Z,10.95
2023-05-20T21:32:38.057Z,10.68
2023-05-20T21:35:04.961Z,11.00
2023-05-20T21:37:31.429Z,9.63
2023-05-20T21:39:57.918Z,8.80
2023-05-20T21:42:24.378Z,10.73
2023-05-20T21:44:51.372Z,11.82
2023-05-20T21:47:19.580Z,12.13
2023-05-20T21:49:47.364Z,9.00
2023-05-20T21:52:14.218Z,11.18
2023-05-20T21:54:41.366Z,10.68
2023-05-20T21:57:07.889Z,9.15
2023-05-20T21:59:34.396Z,10.77
2023-05-20T22:02:01.179Z,10.85
2023-05-20T22:04:28.635Z,8.98
2023-05-20T22:06:56.508Z,9.88
2023-05-20T22:09:23.103Z,11.27
2023-05-20T22:11:49.607Z,8.35
2023-05-20T22:14:16.708Z,8.25
2023-05-20T22:16:46.505Z,9.75
2023-05-20T22:19:15.110Z,10.88
2023-05-20T22:21:50.079Z,9.88
2023-05-20T22:24:17.506Z,8.45
2023-05-20T22:26:43.997Z,10.48
2023-05-20T22:29:10.481Z,7.97
2023-05-20T22:31:37.834Z,7.63
2023-05-20T22:34:05.355Z,10.73
2023-05-20T22:36:34.249Z,9.98
2023-05-20T22:39:04.690Z,10.13
2023-05-20T22:41:31.370Z,9.48
2023-05-20T22:43:58.484Z,7.80
2023-05-20T22:46:25.667Z,8.82
2023-05-20T22:48:52.923Z,10.05
2023-05-20T22:51:24.491Z,11.77
2023-05-20T22:53:51.039Z,7.60
2023-05-20T22:56:18.285Z,8.73
2023-05-20T22:58:45.775Z,7.80
2023-05-20T23:01:12.765Z,8.20
2023-05-20T23:03:39.897Z,7.45
2023-05-20T23:06:06.563Z,8.25
2023-05-20T23:08:33.145Z,9.32
2023-05-20T23:10:59.646Z,6.78
2023-05-20T23:13:26.419Z,7.43
2023-05-20T23:15:52.888Z,8.43
2023-05-20T23:18:19.342Z,7.32
2023-05-20T23:20:45.933Z,9.70
2023-05-20T23:23:12.488Z,7.20
2023-05-20T23:25:39.514Z,6.80
2023-05-20T23:28:06.185Z,8.43
2023-05-20T23:30:32.686Z,7.25
2023-05-20T23:32:59.772Z,8.32
2023-05-20T23:35:26.404Z,9.55
2023-05-20T23:37:52.866Z,7.82
2023-05-20T23:40:19.440Z,8.23
2023-05-20T23:42:45.902Z,7.78
2023-05-20T23:45:13.081Z,8.75
2023-05-20T23:47:39.705Z,5.93
2023-05-20T23:50:06.652Z,6.13
2023-05-20T23:52:33.126Z,8.10
2023-05-20T23:55:00.229Z,7.68
2023-05-20T23:57:26.798Z,7.72
2023-05-20T23:59:53.285Z,6.95
